sensor_id;sensor_type;location;lat;lon;timestamp;P1;durP1;ratioP1;P2;durP2;ratioP2
49840;SDS011;35738;49.890;5.930;2022-08-26T00:02:14;40.20;;;32.05;;
49840;SDS011;35738;49.890;5.930;2022-08-26T00:04:44;39.05;;;31.60;;
49840;SDS011;35738;49.890;5.930;2022-08-26T00:07:11;41.53;;;30.63;;
49840;SDS011;35738;49.890;5.930;2022-08-26T00:09:38;35.20;;;28.17;;
49840;SDS011;35738;49.890;5.930;2022-08-26T00:12:06;41.83;;;34.35;;
49840;SDS011;35738;49.890;5.930;2022-08-26T00:14:34;44.80;;;37.13;;
49840;SDS011;35738;49.890;5.930;2022-08-26T00:17:01;44.72;;;36.00;;
49840;SDS011;35738;49.890;5.930;2022-08-26T00:19:27;52.88;;;41.30;;
49840;SDS011;35738;49.890;5.930;2022-08-26T00:21:54;51.58;;;42.17;;
49840;SDS011;35738;49.890;5.930;2022-08-26T00:24:21;39.63;;;32.92;;
49840;SDS011;35738;49.890;5.930;2022-08-26T00:26:49;50.15;;;39.83;;
49840;SDS011;35738;49.890;5.930;2022-08-26T00:29:16;55.60;;;43.30;;
49840;SDS011;35738;49.890;5.930;2022-08-26T00:31:44;57.33;;;45.03;;
49840;SDS011;35738;49.890;5.930;2022-08-26T00:34:11;56.42;;;43.47;;
49840;SDS011;35738;49.890;5.930;2022-08-26T00:36:39;51.72;;;39.65;;
49840;SDS011;35738;49.890;5.930;2022-08-26T00:39:06;58.05;;;46.10;;
49840;SDS011;35738;49.890;5.930;2022-08-26T00:41:34;47.53;;;40.95;;
49840;SDS011;35738;49.890;5.930;2022-08-26T00:44:03;44.88;;;35.78;;
49840;SDS011;35738;49.890;5.930;2022-08-26T00:46:32;54.42;;;43.72;;
49840;SDS011;35738;49.890;5.930;2022-08-26T00:49:07;56.67;;;43.17;;
49840;SDS011;35738;49.890;5.930;2022-08-26T00:51:41;69.53;;;54.03;;
49840;SDS011;35738;49.890;5.930;2022-08-26T00:54:11;70.50;;;54.33;;
49840;SDS011;35738;49.890;5.930;2022-08-26T00:56:54;69.13;;;52.78;;
49840;SDS011;35738;49.890;5.930;2022-08-26T00:59:25;61.72;;;45.90;;
49840;SDS011;35738;49.890;5.930;2022-08-26T01:01:58;68.82;;;53.08;;
49840;SDS011;35738;49.890;5.930;2022-08-26T01:04:28;60.05;;;46.95;;
49840;SDS011;35738;49.890;5.930;2022-08-26T01:06:57;75.55;;;56.33;;
49840;SDS011;35738;49.890;5.930;2022-08-26T01:09:23;62.72;;;48.03;;
49840;SDS011;35738;49.890;5.930;2022-08-26T01:11:51;83.07;;;59.28;;
49840;SDS011;35738;49.890;5.930;2022-08-26T01:14:22;73.13;;;54.22;;
49840;SDS011;35738;49.890;5.930;2022-08-26T01:16:51;85.38;;;61.33;;
49840;SDS011;35738;49.890;5.930;2022-08-26T01:19:28;77.30;;;56.78;;
49840;SDS011;35738;49.890;5.930;2022-08-26T01:21:59;82.82;;;59.28;;
49840;SDS011;35738;49.890;5.930;2022-08-26T01:24:30;82.13;;;59.95;;
49840;SDS011;35738;49.890;5.930;2022-08-26T01:26:58;78.90;;;57.33;;
49840;SDS011;35738;49.890;5.930;2022-08-26T01:29:30;75.25;;;55.67;;
49840;SDS011;35738;49.890;5.930;2022-08-26T01:31:59;89.28;;;62.88;;
49840;SDS011;35738;49.890;5.930;2022-08-26T01:34:32;93.28;;;62.50;;
49840;SDS011;35738;49.890;5.930;2022-08-26T01:39:43;83.32;;;59.25;;
49840;SDS011;35738;49.890;5.930;2022-08-26T01:42:14;88.90;;;62.35;;
49840;SDS011;35738;49.890;5.930;2022-08-26T01:44:55;85.97;;;63.08;;
49840;SDS011;35738;49.890;5.930;2022-08-26T01:47:27;89.55;;;63.40;;
49840;SDS011;35738;49.890;5.930;2022-08-26T01:49:56;83.63;;;61.08;;
49840;SDS011;35738;49.890;5.930;2022-08-26T01:52:28;78.43;;;56.38;;
49840;SDS011;35738;49.890;5.930;2022-08-26T01:54:58;84.53;;;60.47;;
49840;SDS011;35738;49.890;5.930;2022-08-26T01:57:26;73.18;;;55.00;;
49840;SDS011;35738;49.890;5.930;2022-08-26T01:59:54;78.65;;;58.40;;
49840;SDS011;35738;49.890;5.930;2022-08-26T02:02:26;73.60;;;54.40;;
49840;SDS011;35738;49.890;5.930;2022-08-26T02:04:56;84.55;;;62.03;;
49840;SDS011;35738;49.890;5.930;2022-08-26T02:07:27;86.47;;;62.45;;
49840;SDS011;35738;49.890;5.930;2022-08-26T02:09:58;68.40;;;51.05;;
49840;SDS011;35738;49.890;5.930;2022-08-26T02:12:25;70.25;;;53.15;;
49840;SDS011;35738;49.890;5.930;2022-08-26T02:14:52;80.13;;;58.70;;
49840;SDS011;35738;49.890;5.930;2022-08-26T02:17:25;76.35;;;56.17;;
49840;SDS011;35738;49.890;5.930;2022-08-26T02:19:59;77.18;;;58.83;;
49840;SDS011;35738;49.890;5.930;2022-08-26T02:22:28;78.68;;;57.83;;
49840;SDS011;35738;49.890;5.930;2022-08-26T02:25:03;78.00;;;55.38;;
49840;SDS011;35738;49.890;5.930;2022-08-26T02:27:37;85.90;;;61.60;;
49840;SDS011;35738;49.890;5.930;2022-08-26T02:30:11;74.80;;;55.75;;
49840;SDS011;35738;49.890;5.930;2022-08-26T02:32:42;84.85;;;63.10;;
49840;SDS011;35738;49.890;5.930;2022-08-26T02:35:10;75.70;;;54.78;;
49840;SDS011;35738;49.890;5.930;2022-08-26T02:37:43;77.47;;;54.53;;
49840;SDS011;35738;49.890;5.930;2022-08-26T02:40:11;70.28;;;52.72;;
49840;SDS011;35738;49.890;5.930;2022-08-26T02:42:39;58.90;;;45.60;;
49840;SDS011;35738;49.890;5.930;2022-08-26T02:45:07;74.80;;;55.67;;
49840;SDS011;35738;49.890;5.930;2022-08-26T02:47:35;74.57;;;53.45;;
49840;SDS011;35738;49.890;5.930;2022-08-26T02:50:03;70.28;;;52.42;;
49840;SDS011;35738;49.890;5.930;2022-08-26T02:52:31;74.95;;;55.25;;
49840;SDS011;35738;49.890;5.930;2022-08-26T02:54:59;73.60;;;53.60;;
49840;SDS011;35738;49.890;5.930;2022-08-26T02:57:27;77.88;;;57.15;;
49840;SDS011;35738;49.890;5.930;2022-08-26T02:59:54;71.90;;;53.45;;
49840;SDS011;35738;49.890;5.930;2022-08-26T03:02:20;72.00;;;51.08;;
49840;SDS011;35738;49.890;5.930;2022-08-26T03:04:48;67.70;;;49.50;;
49840;SDS011;35738;49.890;5.930;2022-08-26T03:07:27;60.45;;;46.38;;
49840;SDS011;35738;49.890;5.930;2022-08-26T03:09:55;66.03;;;48.25;;
49840;SDS011;35738;49.890;5.930;2022-08-26T03:12:22;59.97;;;45.35;;
49840;SDS011;35738;49.890;5.930;2022-08-26T03:14:51;68.22;;;53.67;;
49840;SDS011;35738;49.890;5.930;2022-08-26T03:17:18;63.30;;;48.10;;
49840;SDS011;35738;49.890;5.930;2022-08-26T03:19:44;60.28;;;45.25;;
49840;SDS011;35738;49.890;5.930;2022-08-26T03:22:13;68.35;;;49.65;;
49840;SDS011;35738;49.890;5.930;2022-08-26T03:24:40;62.95;;;47.67;;
49840;SDS011;35738;49.890;5.930;2022-08-26T03:27:11;61.60;;;48.85;;
49840;SDS011;35738;49.890;5.930;2022-08-26T03:29:39;51.03;;;39.13;;
49840;SDS011;35738;49.890;5.930;2022-08-26T03:32:25;62.70;;;48.17;;
49840;SDS011;35738;49.890;5.930;2022-08-26T03:34:52;60.70;;;43.33;;
49840;SDS011;35738;49.890;5.930;2022-08-26T03:37:19;65.03;;;47.33;;
49840;SDS011;35738;49.890;5.930;2022-08-26T03:39:47;57.10;;;45.85;;
49840;SDS011;35738;49.890;5.930;2022-08-26T03:42:14;59.70;;;46.03;;
49840;SDS011;35738;49.890;5.930;2022-08-26T03:44:41;52.35;;;39.03;;
49840;SDS011;35738;49.890;5.930;2022-08-26T03:47:09;65.70;;;46.65;;
49840;SDS011;35738;49.890;5.930;2022-08-26T03:49:39;59.80;;;44.17;;
49840;SDS011;35738;49.890;5.930;2022-08-26T03:52:07;60.05;;;44.25;;
49840;SDS011;35738;49.890;5.930;2022-08-26T03:54:34;59.13;;;46.05;;
49840;SDS011;35738;49.890;5.930;2022-08-26T03:57:00;55.92;;;42.08;;
49840;SDS011;35738;49.890;5.930;2022-08-26T03:59:28;57.03;;;43.92;;
49840;SDS011;35738;49.890;5.930;2022-08-26T04:01:55;59.50;;;43.60;;
49840;SDS011;35738;49.890;5.930;2022-08-26T04:04:21;55.97;;;43.70;;
49840;SDS011;35738;49.890;5.930;2022-08-26T04:06:54;53.05;;;42.45;;
49840;SDS011;35738;49.890;5.930;2022-08-26T04:09:24;52.65;;;40.35;;
49840;SDS011;35738;49.890;5.930;2022-08-26T04:11:52;52.10;;;40.83;;
49840;SDS011;35738;49.890;5.930;2022-08-26T04:14:20;51.67;;;38.17;;
49840;SDS011;35738;49.890;5.930;2022-08-26T04:16:49;51.40;;;40.63;;
49840;SDS011;35738;49.890;5.930;2022-08-26T04:19:17;52.60;;;37.38;;
49840;SDS011;35738;49.890;5.930;2022-08-26T04:21:45;47.85;;;38.20;;
49840;SDS011;35738;49.890;5.930;2022-08-26T04:24:14;39.65;;;34.22;;
49840;SDS011;35738;49.890;5.930;2022-08-26T04:26:42;43.42;;;34.80;;
49840;SDS011;35738;49.890;5.930;2022-08-26T04:29:13;42.17;;;35.67;;
49840;SDS011;35738;49.890;5.930;2022-08-26T04:31:43;45.17;;;35.20;;
49840;SDS011;35738;49.890;5.930;2022-08-26T04:34:10;53.63;;;40.65;;
49840;SDS011;35738;49.890;5.930;2022-08-26T04:36:39;49.13;;;39.05;;
49840;SDS011;35738;49.890;5.930;2022-08-26T04:39:07;53.20;;;40.97;;
49840;SDS011;35738;49.890;5.930;2022-08-26T04:41:37;52.55;;;40.15;;
49840;SDS011;35738;49.890;5.930;2022-08-26T04:44:05;50.08;;;39.50;;
49840;SDS011;35738;49.890;5.930;2022-08-26T04:46:32;53.33;;;39.70;;
49840;SDS011;35738;49.890;5.930;2022-08-26T04:49:00;48.03;;;37.92;;
49840;SDS011;35738;49.890;5.930;2022-08-26T04:51:27;43.00;;;35.25;;
49840;SDS011;35738;49.890;5.930;2022-08-26T04:53:54;43.95;;;33.42;;
49840;SDS011;35738;49.890;5.930;2022-08-26T04:56:23;53.78;;;39.58;;
49840;SDS011;35738;49.890;5.930;2022-08-26T04:58:52;44.65;;;35.83;;
49840;SDS011;35738;49.890;5.930;2022-08-26T05:01:19;46.63;;;37.35;;
49840;SDS011;35738;49.890;5.930;2022-08-26T05:03:49;48.40;;;39.88;;
49840;SDS011;35738;49.890;5.930;2022-08-26T05:06:17;51.72;;;39.22;;
49840;SDS011;35738;49.890;5.930;2022-08-26T05:08:44;45.80;;;36.88;;
49840;SDS011;35738;49.890;5.930;2022-08-26T05:11:12;38.58;;;30.42;;
49840;SDS011;35738;49.890;5.930;2022-08-26T05:13:38;46.17;;;36.65;;
49840;SDS011;35738;49.890;5.930;2022-08-26T05:16:07;43.72;;;36.17;;
49840;SDS011;35738;49.890;5.930;2022-08-26T05:18:37;38.95;;;33.10;;
49840;SDS011;35738;49.890;5.930;2022-08-26T05:21:05;44.10;;;33.35;;
49840;SDS011;35738;49.890;5.930;2022-08-26T05:23:33;40.15;;;33.13;;
49840;SDS011;35738;49.890;5.930;2022-08-26T05:26:01;42.45;;;32.72;;
49840;SDS011;35738;49.890;5.930;2022-08-26T05:28:33;46.85;;;34.88;;
49840;SDS011;35738;49.890;5.930;2022-08-26T05:31:09;42.03;;;31.73;;
49840;SDS011;35738;49.890;5.930;2022-08-26T05:33:43;44.55;;;34.83;;
49840;SDS011;35738;49.890;5.930;2022-08-26T05:36:11;47.25;;;35.30;;
49840;SDS011;35738;49.890;5.930;2022-08-26T05:38:40;38.15;;;26.98;;
49840;SDS011;35738;49.890;5.930;2022-08-26T05:41:13;42.45;;;32.40;;
49840;SDS011;35738;49.890;5.930;2022-08-26T05:43:43;42.67;;;30.70;;
49840;SDS011;35738;49.890;5.930;2022-08-26T05:46:10;38.28;;;30.30;;
49840;SDS011;35738;49.890;5.930;2022-08-26T05:48:38;43.17;;;32.97;;
49840;SDS011;35738;49.890;5.930;2022-08-26T05:51:10;40.90;;;31.35;;
49840;SDS011;35738;49.890;5.930;2022-08-26T05:53:38;37.70;;;29.52;;
49840;SDS011;35738;49.890;5.930;2022-08-26T05:56:09;36.05;;;28.52;;
49840;SDS011;35738;49.890;5.930;2022-08-26T05:58:37;32.00;;;25.30;;
49840;SDS011;35738;49.890;5.930;2022-08-26T06:03:37;33.03;;;26.65;;
49840;SDS011;35738;49.890;5.930;2022-08-26T06:06:06;33.33;;;27.92;;
49840;SDS011;35738;49.890;5.930;2022-08-26T06:08:46;34.83;;;28.25;;
49840;SDS011;35738;49.890;5.930;2022-08-26T06:11:15;37.38;;;27.13;;
49840;SDS011;35738;49.890;5.930;2022-08-26T06:13:44;30.98;;;26.60;;
49840;SDS011;35738;49.890;5.930;2022-08-26T06:16:13;37.72;;;27.70;;
49840;SDS011;35738;49.890;5.930;2022-08-26T06:18:42;35.05;;;28.30;;
49840;SDS011;35738;49.890;5.930;2022-08-26T06:21:18;26.40;;;21.08;;
49840;SDS011;35738;49.890;5.930;2022-08-26T06:23:46;32.55;;;24.90;;
49840;SDS011;35738;49.890;5.930;2022-08-26T06:26:33;29.15;;;23.38;;
49840;SDS011;35738;49.890;5.930;2022-08-26T06:29:02;27.65;;;22.83;;
49840;SDS011;35738;49.890;5.930;2022-08-26T06:31:30;32.90;;;24.05;;
49840;SDS011;35738;49.890;5.930;2022-08-26T06:33:59;28.15;;;22.67;;
49840;SDS011;35738;49.890;5.930;2022-08-26T06:36:27;32.08;;;23.90;;
49840;SDS011;35738;49.890;5.930;2022-08-26T06:38:58;31.75;;;22.13;;
49840;SDS011;35738;49.890;5.930;2022-08-26T06:41:26;26.73;;;19.92;;
49840;SDS011;35738;49.890;5.930;2022-08-26T06:43:53;23.95;;;19.60;;
49840;SDS011;35738;49.890;5.930;2022-08-26T06:46:20;19.02;;;15.35;;
49840;SDS011;35738;49.890;5.930;2022-08-26T06:48:47;24.02;;;19.88;;
49840;SDS011;35738;49.890;5.930;2022-08-26T06:51:15;24.70;;;19.27;;
49840;SDS011;35738;49.890;5.930;2022-08-26T06:53:48;24.17;;;17.88;;
49840;SDS011;35738;49.890;5.930;2022-08-26T06:56:17;25.60;;;19.83;;
49840;SDS011;35738;49.890;5.930;2022-08-26T06:58:50;26.60;;;21.80;;
49840;SDS011;35738;49.890;5.930;2022-08-26T07:01:21;25.65;;;20.02;;
49840;SDS011;35738;49.890;5.930;2022-08-26T07:03:57;25.88;;;19.70;;
49840;SDS011;35738;49.890;5.930;2022-08-26T07:06:26;20.02;;;16.35;;
49840;SDS011;35738;49.890;5.930;2022-08-26T07:08:53;24.83;;;18.38;;
49840;SDS011;35738;49.890;5.930;2022-08-26T07:11:30;24.85;;;18.25;;
49840;SDS011;35738;49.890;5.930;2022-08-26T07:13:58;22.30;;;17.20;;
49840;SDS011;35738;49.890;5.930;2022-08-26T07:16:25;20.98;;;17.05;;
49840;SDS011;35738;49.890;5.930;2022-08-26T07:18:54;21.65;;;18.05;;
49840;SDS011;35738;49.890;5.930;2022-08-26T07:21:22;20.45;;;16.60;;
49840;SDS011;35738;49.890;5.930;2022-08-26T07:23:50;22.20;;;15.80;;
49840;SDS011;35738;49.890;5.930;2022-08-26T07:26:24;24.73;;;17.52;;
49840;SDS011;35738;49.890;5.930;2022-08-26T07:28:54;25.00;;;17.20;;
49840;SDS011;35738;49.890;5.930;2022-08-26T07:31:25;19.27;;;15.63;;
49840;SDS011;35738;49.890;5.930;2022-08-26T07:34:01;21.30;;;16.08;;
49840;SDS011;35738;49.890;5.930;2022-08-26T07:36:28;19.05;;;15.23;;
49840;SDS011;35738;49.890;5.930;2022-08-26T07:38:55;20.65;;;16.35;;
49840;SDS011;35738;49.890;5.930;2022-08-26T07:41:23;20.67;;;15.88;;
49840;SDS011;35738;49.890;5.930;2022-08-26T07:43:51;21.63;;;15.13;;
49840;SDS011;35738;49.890;5.930;2022-08-26T07:46:18;15.57;;;13.80;;
49840;SDS011;35738;49.890;5.930;2022-08-26T07:48:52;17.75;;;14.15;;
49840;SDS011;35738;49.890;5.930;2022-08-26T07:51:19;18.40;;;14.73;;
49840;SDS011;35738;49.890;5.930;2022-08-26T07:53:47;19.88;;;15.43;;
49840;SDS011;35738;49.890;5.930;2022-08-26T07:56:18;17.27;;;13.55;;
49840;SDS011;35738;49.890;5.930;2022-08-26T07:58:46;16.63;;;14.52;;
49840;SDS011;35738;49.890;5.930;2022-08-26T08:01:17;20.38;;;15.15;;
49840;SDS011;35738;49.890;5.930;2022-08-26T08:03:49;18.33;;;14.57;;
49840;SDS011;35738;49.890;5.930;2022-08-26T08:06:20;18.92;;;15.32;;
49840;SDS011;35738;49.890;5.930;2022-08-26T08:08:54;17.90;;;15.25;;
49840;SDS011;35738;49.890;5.930;2022-08-26T08:11:21;18.13;;;14.23;;
49840;SDS011;35738;49.890;5.930;2022-08-26T08:13:49;15.90;;;13.40;;
49840;SDS011;35738;49.890;5.930;2022-08-26T08:16:22;17.58;;;14.52;;
49840;SDS011;35738;49.890;5.930;2022-08-26T08:18:53;13.98;;;12.40;;
49840;SDS011;35738;49.890;5.930;2022-08-26T08:21:24;16.45;;;13.30;;
49840;SDS011;35738;49.890;5.930;2022-08-26T08:23:52;14.15;;;11.60;;
49840;SDS011;35738;49.890;5.930;2022-08-26T08:26:21;13.55;;;11.82;;
49840;SDS011;35738;49.890;5.930;2022-08-26T08:28:49;14.20;;;12.70;;
49840;SDS011;35738;49.890;5.930;2022-08-26T08:31:27;17.25;;;12.82;;
49840;SDS011;35738;49.890;5.930;2022-08-26T08:34:15;11.57;;;10.35;;
49840;SDS011;35738;49.890;5.930;2022-08-26T08:36:43;13.80;;;11.82;;
49840;SDS011;35738;49.890;5.930;2022-08-26T08:39:11;12.68;;;9.48;;
49840;SDS011;35738;49.890;5.930;2022-08-26T08:44:24;13.55;;;11.88;;
49840;SDS011;35738;49.890;5.930;2022-08-26T08:47:03;13.30;;;11.90;;
49840;SDS011;35738;49.890;5.930;2022-08-26T08:49:37;14.32;;;12.40;;
49840;SDS011;35738;49.890;5.930;2022-08-26T08:52:07;14.07;;;12.57;;
49840;SDS011;35738;49.890;5.930;2022-08-26T08:55:03;14.13;;;12.40;;
49840;SDS011;35738;49.890;5.930;2022-08-26T09:00:12;13.20;;;11.15;;
49840;SDS011;35738;49.890;5.930;2022-08-26T09:02:56;16.05;;;12.70;;
49840;SDS011;35738;49.890;5.930;2022-08-26T09:05:30;14.93;;;13.00;;
49840;SDS011;35738;49.890;5.930;2022-08-26T09:08:15;15.27;;;12.07;;
49840;SDS011;35738;49.890;5.930;2022-08-26T09:10:48;15.20;;;12.50;;
49840;SDS011;35738;49.890;5.930;2022-08-26T09:13:19;14.52;;;12.77;;
49840;SDS011;35738;49.890;5.930;2022-08-26T09:16:11;12.80;;;11.20;;
49840;SDS011;35738;49.890;5.930;2022-08-26T09:21:36;12.73;;;11.00;;
49840;SDS011;35738;49.890;5.930;2022-08-26T09:24:04;13.45;;;11.52;;
49840;SDS011;35738;49.890;5.930;2022-08-26T09:29:05;12.73;;;10.02;;
49840;SDS011;35738;49.890;5.930;2022-08-26T09:31:37;12.20;;;10.35;;
49840;SDS011;35738;49.890;5.930;2022-08-26T09:36:47;11.07;;;9.98;;
49840;SDS011;35738;49.890;5.930;2022-08-26T09:44:50;12.90;;;10.88;;
49840;SDS011;35738;49.890;5.930;2022-08-26T09:47:25;10.70;;;9.38;;
49840;SDS011;35738;49.890;5.930;2022-08-26T09:49:59;11.75;;;9.20;;
49840;SDS011;35738;49.890;5.930;2022-08-26T09:52:35;12.07;;;10.10;;
49840;SDS011;35738;49.890;5.930;2022-08-26T09:55:09;14.00;;;11.10;;
49840;SDS011;35738;49.890;5.930;2022-08-26T09:57:43;11.73;;;10.10;;
49840;SDS011;35738;49.890;5.930;2022-08-26T10:03:23;14.07;;;11.35;;
49840;SDS011;35738;49.890;5.930;2022-08-26T10:06:03;11.85;;;10.32;;
49840;SDS011;35738;49.890;5.930;2022-08-26T10:08:40;13.73;;;10.57;;
49840;SDS011;35738;49.890;5.930;2022-08-26T10:11:18;12.23;;;10.18;;
49840;SDS011;35738;49.890;5.930;2022-08-26T10:13:53;13.02;;;8.93;;
49840;SDS011;35738;49.890;5.930;2022-08-26T10:19:50;11.27;;;9.30;;
49840;SDS011;35738;49.890;5.930;2022-08-26T10:22:35;8.90;;;8.10;;
49840;SDS011;35738;49.890;5.930;2022-08-26T10:25:14;11.05;;;8.63;;
49840;SDS011;35738;49.890;5.930;2022-08-26T10:30:22;9.10;;;7.85;;
49840;SDS011;35738;49.890;5.930;2022-08-26T10:32:56;11.30;;;8.52;;
49840;SDS011;35738;49.890;5.930;2022-08-26T10:35:29;10.43;;;7.60;;
49840;SDS011;35738;49.890;5.930;2022-08-26T10:38:03;10.52;;;8.68;;
49840;SDS011;35738;49.890;5.930;2022-08-26T10:40:49;13.35;;;10.70;;
49840;SDS011;35738;49.890;5.930;2022-08-26T10:43:33;9.95;;;8.95;;
49840;SDS011;35738;49.890;5.930;2022-08-26T10:46:11;12.00;;;9.23;;
49840;SDS011;35738;49.890;5.930;2022-08-26T10:48:46;10.25;;;9.23;;
49840;SDS011;35738;49.890;5.930;2022-08-26T10:51:29;12.15;;;8.57;;
49840;SDS011;35738;49.890;5.930;2022-08-26T10:54:03;9.32;;;8.25;;
49840;SDS011;35738;49.890;5.930;2022-08-26T11:02:52;8.32;;;7.38;;
49840;SDS011;35738;49.890;5.930;2022-08-26T11:05:26;7.15;;;6.47;;
49840;SDS011;35738;49.890;5.930;2022-08-26T11:07:54;7.97;;;7.20;;
49840;SDS011;35738;49.890;5.930;2022-08-26T11:10:55;9.10;;;8.20;;
49840;SDS011;35738;49.890;5.930;2022-08-26T11:16:35;8.07;;;7.20;;
49840;SDS011;35738;49.890;5.930;2022-08-26T11:19:11;10.07;;;8.50;;
49840;SDS011;35738;49.890;5.930;2022-08-26T11:22:24;8.32;;;7.47;;
49840;SDS011;35738;49.890;5.930;2022-08-26T11:24:59;7.70;;;6.97;;
49840;SDS011;35738;49.890;5.930;2022-08-26T11:35:02;8.18;;;7.43;;
49840;SDS011;35738;49.890;5.930;2022-08-26T11:37:35;8.88;;;7.95;;
49840;SDS011;35738;49.890;5.930;2022-08-26T11:42:50;9.15;;;7.78;;
49840;SDS011;35738;49.890;5.930;2022-08-26T11:47:52;7.35;;;6.20;;
49840;SDS011;35738;49.890;5.930;2022-08-26T11:50:24;6.10;;;5.43;;
49840;SDS011;35738;49.890;5.930;2022-08-26T11:52:54;6.85;;;6.10;;
49840;SDS011;35738;49.890;5.930;2022-08-26T11:55:32;6.68;;;6.05;;
49840;SDS011;35738;49.890;5.930;2022-08-26T11:58:02;8.43;;;7.40;;
49840;SDS011;35738;49.890;5.930;2022-08-26T12:00:33;9.13;;;8.23;;
49840;SDS011;35738;49.890;5.930;2022-08-26T12:03:17;10.18;;;7.60;;
49840;SDS011;35738;49.890;5.930;2022-08-26T12:05:49;9.30;;;8.30;;
49840;SDS011;35738;49.890;5.930;2022-08-26T12:08:19;8.80;;;7.93;;
49840;SDS011;35738;49.890;5.930;2022-08-26T12:11:02;9.10;;;8.18;;
49840;SDS011;35738;49.890;5.930;2022-08-26T12:13:32;9.80;;;8.52;;
49840;SDS011;35738;49.890;5.930;2022-08-26T12:15:59;7.35;;;6.57;;
49840;SDS011;35738;49.890;5.930;2022-08-26T12:18:34;8.43;;;7.63;;
49840;SDS011;35738;49.890;5.930;2022-08-26T12:21:11;7.40;;;6.65;;
49840;SDS011;35738;49.890;5.930;2022-08-26T12:23:48;7.72;;;7.03;;
49840;SDS011;35738;49.890;5.930;2022-08-26T12:26:22;7.57;;;6.85;;
49840;SDS011;35738;49.890;5.930;2022-08-26T12:33:57;6.47;;;5.95;;
49840;SDS011;35738;49.890;5.930;2022-08-26T12:36:28;7.95;;;6.28;;
49840;SDS011;35738;49.890;5.930;2022-08-26T12:39:05;6.22;;;5.65;;
49840;SDS011;35738;49.890;5.930;2022-08-26T12:41:44;5.65;;;5.05;;
49840;SDS011;35738;49.890;5.930;2022-08-26T12:58:11;6.50;;;5.90;;
49840;SDS011;35738;49.890;5.930;2022-08-26T13:08:56;5.80;;;5.30;;
49840;SDS011;35738;49.890;5.930;2022-08-26T13:14:18;6.47;;;4.95;;
49840;SDS011;35738;49.890;5.930;2022-08-26T13:16:49;5.18;;;4.68;;
49840;SDS011;35738;49.890;5.930;2022-08-26T13:19:19;4.75;;;4.45;;
49840;SDS011;35738;49.890;5.930;2022-08-26T13:21:49;4.70;;;4.30;;
49840;SDS011;35738;49.890;5.930;2022-08-26T13:24:41;8.60;;;6.55;;
49840;SDS011;35738;49.890;5.930;2022-08-26T13:27:09;6.22;;;5.53;;
49840;SDS011;35738;49.890;5.930;2022-08-26T13:29:38;6.40;;;4.60;;
49840;SDS011;35738;49.890;5.930;2022-08-26T13:32:06;6.60;;;5.95;;
49840;SDS011;35738;49.890;5.930;2022-08-26T13:34:34;6.90;;;6.18;;
49840;SDS011;35738;49.890;5.930;2022-08-26T13:37:03;8.55;;;5.95;;
49840;SDS011;35738;49.890;5.930;2022-08-26T13:39:30;8.85;;;6.28;;
49840;SDS011;35738;49.890;5.930;2022-08-26T13:41:58;8.15;;;6.78;;
49840;SDS011;35738;49.890;5.930;2022-08-26T13:44:25;8.43;;;6.90;;
49840;SDS011;35738;49.890;5.930;2022-08-26T13:46:52;8.57;;;6.90;;
49840;SDS011;35738;49.890;5.930;2022-08-26T13:49:19;7.43;;;6.38;;
49840;SDS011;35738;49.890;5.930;2022-08-26T13:51:46;7.57;;;6.22;;
49840;SDS011;35738;49.890;5.930;2022-08-26T13:54:13;7.90;;;6.75;;
49840;SDS011;35738;49.890;5.930;2022-08-26T13:56:40;6.43;;;5.82;;
49840;SDS011;35738;49.890;5.930;2022-08-26T13:59:06;7.30;;;6.18;;
49840;SDS011;35738;49.890;5.930;2022-08-26T14:01:33;8.05;;;7.35;;
49840;SDS011;35738;49.890;5.930;2022-08-26T14:04:00;11.80;;;7.55;;
49840;SDS011;35738;49.890;5.930;2022-08-26T14:06:28;8.52;;;7.00;;
49840;SDS011;35738;49.890;5.930;2022-08-26T14:08:55;9.98;;;6.53;;
49840;SDS011;35738;49.890;5.930;2022-08-26T14:11:22;6.22;;;5.63;;
49840;SDS011;35738;49.890;5.930;2022-08-26T14:13:50;7.28;;;6.00;;
49840;SDS011;35738;49.890;5.930;2022-08-26T14:16:22;6.07;;;5.28;;
49840;SDS011;35738;49.890;5.930;2022-08-26T14:18:52;8.13;;;5.97;;
49840;SDS011;35738;49.890;5.930;2022-08-26T14:21:19;5.70;;;5.10;;
49840;SDS011;35738;49.890;5.930;2022-08-26T14:23:46;9.77;;;5.25;;
49840;SDS011;35738;49.890;5.930;2022-08-26T14:26:13;7.18;;;5.72;;
49840;SDS011;35738;49.890;5.930;2022-08-26T14:28:57;6.65;;;5.70;;
49840;SDS011;35738;49.890;5.930;2022-08-26T14:31:25;5.38;;;4.82;;
49840;SDS011;35738;49.890;5.930;2022-08-26T14:33:58;7.28;;;5.45;;
49840;SDS011;35738;49.890;5.930;2022-08-26T14:36:28;7.50;;;5.38;;
49840;SDS011;35738;49.890;5.930;2022-08-26T14:39:03;7.28;;;5.50;;
49840;SDS011;35738;49.890;5.930;2022-08-26T14:41:32;5.28;;;4.78;;
49840;SDS011;35738;49.890;5.930;2022-08-26T14:44:05;6.22;;;4.93;;
49840;SDS011;35738;49.890;5.930;2022-08-26T14:46:38;7.35;;;5.10;;
49840;SDS011;35738;49.890;5.930;2022-08-26T14:49:09;5.75;;;4.60;;
49840;SDS011;35738;49.890;5.930;2022-08-26T14:51:36;8.80;;;5.30;;
49840;SDS011;35738;49.890;5.930;2022-08-26T14:54:03;5.22;;;4.72;;
49840;SDS011;35738;49.890;5.930;2022-08-26T14:59:18;4.25;;;3.85;;
49840;SDS011;35738;49.890;5.930;2022-08-26T15:01:47;6.28;;;3.30;;
49840;SDS011;35738;49.890;5.930;2022-08-26T15:04:14;5.00;;;3.58;;
49840;SDS011;35738;49.890;5.930;2022-08-26T15:06:41;6.10;;;3.72;;
49840;SDS011;35738;49.890;5.930;2022-08-26T15:09:08;4.28;;;3.67;;
49840;SDS011;35738;49.890;5.930;2022-08-26T15:11:35;5.63;;;3.92;;
49840;SDS011;35738;49.890;5.930;2022-08-26T15:14:02;3.63;;;3.10;;
49840;SDS011;35738;49.890;5.930;2022-08-26T15:16:29;4.45;;;3.60;;
49840;SDS011;35738;49.890;5.930;2022-08-26T15:18:58;8.30;;;4.32;;
49840;SDS011;35738;49.890;5.930;2022-08-26T15:21:25;6.70;;;4.07;;
49840;SDS011;35738;49.890;5.930;2022-08-26T15:23:52;4.32;;;3.92;;
49840;SDS011;35738;49.890;5.930;2022-08-26T15:26:19;7.53;;;4.97;;
49840;SDS011;35738;49.890;5.930;2022-08-26T15:28:46;6.22;;;4.47;;
49840;SDS011;35738;49.890;5.930;2022-08-26T15:31:13;7.60;;;4.93;;
49840;SDS011;35738;49.890;5.930;2022-08-26T15:33:40;6.15;;;4.90;;
49840;SDS011;35738;49.890;5.930;2022-08-26T15:36:08;5.25;;;4.60;;
49840;SDS011;35738;49.890;5.930;2022-08-26T15:38:37;5.28;;;4.78;;
49840;SDS011;35738;49.890;5.930;2022-08-26T15:41:05;5.22;;;4.60;;
49840;SDS011;35738;49.890;5.930;2022-08-26T15:43:34;4.45;;;4.05;;
49840;SDS011;35738;49.890;5.930;2022-08-26T15:46:02;5.90;;;4.90;;
49840;SDS011;35738;49.890;5.930;2022-08-26T15:48:29;7.95;;;5.13;;
49840;SDS011;35738;49.890;5.930;2022-08-26T15:50:57;5.53;;;4.63;;
49840;SDS011;35738;49.890;5.930;2022-08-26T15:53:26;8.25;;;6.32;;
49840;SDS011;35738;49.890;5.930;2022-08-26T15:55:55;8.38;;;6.68;;
49840;SDS011;35738;49.890;5.930;2022-08-26T15:58:23;9.43;;;7.10;;
49840;SDS011;35738;49.890;5.930;2022-08-26T16:00:52;9.35;;;7.72;;
49840;SDS011;35738;49.890;5.930;2022-08-26T16:03:20;11.18;;;8.18;;
49840;SDS011;35738;49.890;5.930;2022-08-26T16:05:48;8.00;;;6.88;;
49840;SDS011;35738;49.890;5.930;2022-08-26T16:08:15;12.38;;;9.18;;
49840;SDS011;35738;49.890;5.930;2022-08-26T16:10:43;11.57;;;9.35;;
49840;SDS011;35738;49.890;5.930;2022-08-26T16:13:16;12.18;;;10.30;;
49840;SDS011;35738;49.890;5.930;2022-08-26T16:15:44;13.88;;;10.93;;
49840;SDS011;35738;49.890;5.930;2022-08-26T16:18:12;15.20;;;10.98;;
49840;SDS011;35738;49.890;5.930;2022-08-26T16:20:48;11.05;;;9.70;;